Terminal Aerodrome Forecast
Issued by NWS

Home | Current Version | Previous Version | Text Only | Print | Product List | Glossary Off
Versions: 1 2 3 4 5 6 7 8 9 10 11 12 13 14 15 16 17

000
FTUS43 KBIS 192300
TAFJMS
TAF
KJMS 192339Z 2000/2024 18007KT P6SM SCT070
      TEMPO 2000/2003 4SM BR OVC005
     FM200300 18006KT 3SM BR OVC005
      TEMPO 2003/2005 1/2SM FZFG OVC003
     FM200500 17003KT 2SM BR OVC003
     FM201800 17006KT P6SM SCT100=

USA.gov is the U.S. government's official web portal to all federal, state and local government web resources and services.